Time;durP1;ratioP1;P1;durP2;ratioP2;P2;SDS_P1;SDS_P2;PMS_P1;PMS_P2;Temp;Humidity;BMP_temperature;BMP_pressure;BME280_temperature;BME280_humidity;BME280_pressure;Samples;Min_cycle;Max_cycle;Signal;HPM_P1;HPM_P2
2023/10/14 07:10:33;;;;;;;7.93;3.50;;;;;;;20.89;46.85;94164.69;5021264;27;20525;-71
2023/10/14 07:13:00;;;;;;;9.73;3.70;;;;;;;20.90;46.04;94152.72;5006351;28;20096;-70
2023/10/14 07:15:34;;;;;;;6.85;3.58;;;;;;;20.98;45.92;94159.75;4991132;28;20626;-72
2023/10/14 07:18:01;;;;;;;9.23;3.72;;;;;;;21.06;46.29;94150.59;5013647;28;20033;-70
2023/10/14 07:20:29;;;;;;;8.82;3.92;;;;;;;21.13;46.74;94160.69;4992551;28;20060;-67
2023/10/14 07:25:23;;;;;;;18.38;6.57;;;;;;;14.57;48.25;94187.72;5057298;27;20371;-74
2023/10/14 07:27:51;;;;;;;16.70;7.63;;;;;;;14.82;47.26;94188.59;5079420;28;20666;-72
2023/10/14 07:30:18;;;;;;;14.80;6.70;;;;;;;15.00;46.81;94184.63;5063757;28;20560;-73
2023/10/14 07:32:45;;;;;;;13.95;6.63;;;;;;;15.06;47.02;94185.97;5062557;28;20021;-75
2023/10/14 07:35:12;;;;;;;16.83;7.97;;;;;;;15.07;45.97;94171.47;5061608;28;20372;-74
2023/10/14 07:37:45;;;;;;;17.80;6.28;;;;;;;15.18;46.55;94187.91;5063223;28;20036;-74
2023/10/14 07:40:22;;;;;;;21.17;6.93;;;;;;;15.25;46.13;94183.56;5060046;28;20060;-74
2023/10/14 07:42:54;;;;;;;16.77;6.97;;;;;;;15.26;46.76;94177.06;5060320;28;20041;-73
2023/10/14 07:45:33;;;;;;;13.43;5.97;;;;;;;15.30;45.38;94164.56;5059313;28;20064;-73
2023/10/14 07:47:59;;;;;;;10.90;5.93;;;;;;;15.45;45.96;94174.66;5060579;28;20506;-73
2023/10/14 07:50:31;;;;;;;18.27;5.68;;;;;;;15.52;45.97;94162.63;5059492;28;20028;-73
2023/10/14 07:53:07;;;;;;;15.65;8.27;;;;;;;15.51;45.73;94163.72;5062862;28;20040;-73
2023/10/14 07:55:35;;;;;;;17.10;7.80;;;;;;;15.58;44.82;94151.34;5059855;28;20036;-73
2023/10/14 07:58:01;;;;;;;17.38;6.97;;;;;;;15.48;44.80;94145.63;5064149;28;20032;-73
2023/10/14 08:00:37;;;;;;;20.33;7.50;;;;;;;15.55;45.44;94156.59;5058146;28;20121;-74
2023/10/14 08:03:06;;;;;;;11.15;6.88;;;;;;;15.69;45.79;94157.03;5061655;28;20040;-73
2023/10/14 08:05:35;;;;;;;15.75;7.65;;;;;;;15.74;44.78;94148.75;5056284;28;20016;-75
2023/10/14 08:08:06;;;;;;;14.75;6.72;;;;;;;15.76;44.86;94144.63;5069721;28;20536;-74
2023/10/14 08:10:32;;;;;;;15.00;6.30;;;;;;;15.83;45.18;94141.38;5063162;28;20477;-74
2023/10/14 08:12:57;;;;;;;16.23;5.18;;;;;;;15.97;45.06;94155.22;5065019;28;20610;-74
2023/10/14 08:15:22;;;;;;;18.55;8.07;;;;;;;16.08;44.89;94153.63;5065438;28;20966;-73
2023/10/14 08:17:51;;;;;;;14.80;6.22;;;;;;;16.12;44.73;94149.13;5063497;28;20032;-73
2023/10/14 08:20:19;;;;;;;17.85;5.85;;;;;;;16.15;45.02;94137.72;5063172;28;20345;-73
2023/10/14 08:22:47;;;;;;;12.45;5.65;;;;;;;16.24;44.72;94146.41;5060025;28;20059;-74
2023/10/14 08:25:13;;;;;;;17.08;6.72;;;;;;;16.33;43.72;94146.28;5060782;28;20044;-73
2023/10/14 08:27:39;;;;;;;18.80;6.60;;;;;;;16.34;44.01;94145.19;5058324;28;20052;-74
2023/10/14 08:30:11;;;;;;;18.92;7.25;;;;;;;16.13;44.29;94136.50;5060973;28;20816;-74
2023/10/14 08:32:40;;;;;;;13.18;6.55;;;;;;;16.30;43.83;94122.81;5060387;28;21227;-73
2023/10/14 08:35:14;;;;;;;14.65;6.93;;;;;;;16.39;43.81;94130.72;5054661;28;20013;-73
2023/10/14 08:37:51;;;;;;;16.98;6.10;;;;;;;16.47;43.44;94124.44;5045318;28;20040;-74
2023/10/14 08:40:22;;;;;;;18.50;6.75;;;;;;;16.57;44.34;94121.28;5030707;28;20110;-74
2023/10/14 08:43:16;;;;;;;13.50;6.70;;;;;;;16.51;44.39;94122.63;5022260;28;20486;-73
2023/10/14 08:45:47;;;;;;;14.73;7.18;;;;;;;16.64;44.32;94110.72;5023614;28;20068;-75
2023/10/14 08:48:18;;;;;;;13.20;6.32;;;;;;;16.77;44.28;94114.13;5030841;28;20041;-73
2023/10/14 08:50:45;;;;;;;19.23;6.82;;;;;;;16.85;44.26;94108.59;5028064;28;20524;-74
2023/10/14 08:53:12;;;;;;;47.45;8.98;;;;;;;16.90;44.41;94107.56;5030183;28;20443;-72
2023/10/14 08:55:39;;;;;;;18.00;7.28;;;;;;;17.05;42.84;94096.81;5028727;28;20041;-72
2023/10/14 08:58:06;;;;;;;24.73;6.75;;;;;;;17.11;42.70;94092.72;5030149;28;20059;-72
2023/10/14 09:00:37;;;;;;;22.08;6.60;;;;;;;17.36;42.26;94097.94;5027007;28;20040;-72
2023/10/14 09:03:07;;;;;;;15.02;6.30;;;;;;;17.31;42.00;94090.16;5030335;28;20510;-72
2023/10/14 09:05:40;;;;;;;15.93;6.72;;;;;;;17.41;41.83;94097.69;5023999;28;20529;-72
2023/10/14 09:08:06;;;;;;;14.77;7.00;;;;;;;17.34;41.90;94076.03;5027366;28;20036;-72
2023/10/14 09:10:36;;;;;;;10.88;6.35;;;;;;;17.40;41.95;94098.84;5034123;28;20041;-72
2023/10/14 09:13:05;;;;;;;15.05;5.68;;;;;;;17.46;42.45;94092.03;5039705;28;20034;-72
2023/10/14 09:15:39;;;;;;;14.25;5.50;;;;;;;17.45;41.66;94090.50;5038552;28;20094;-72
2023/10/14 09:18:22;;;;;;;15.23;5.47;;;;;;;17.61;40.95;94083.16;5037237;28;20457;-73
2023/10/14 09:20:55;;;;;;;17.65;6.22;;;;;;;17.66;40.87;94074.03;5042544;28;20623;-72
2023/10/14 09:23:29;;;;;;;19.17;5.97;;;;;;;17.85;41.53;94076.75;5037443;28;20044;-72
2023/10/14 09:26:00;;;;;;;11.73;5.78;;;;;;;17.83;40.89;94081.72;5018200;28;20048;-71
2023/10/14 09:28:33;;;;;;;10.30;5.03;;;;;;;17.82;41.65;94072.09;5042368;28;20036;-72
2023/10/14 09:31:05;;;;;;;11.45;5.35;;;;;;;17.97;40.83;94058.63;5052913;28;20094;-74
2023/10/14 09:33:32;;;;;;;18.42;6.00;;;;;;;18.04;40.40;94058.75;5046568;28;20560;-73
2023/10/14 09:36:04;;;;;;;11.75;6.10;;;;;;;18.17;39.79;94055.94;5035374;28;20048;-73
2023/10/14 09:38:32;;;;;;;9.40;5.28;;;;;;;18.25;39.97;94046.84;5027438;28;20025;-71
2023/10/14 09:41:10;;;;;;;14.27;5.93;;;;;;;18.19;39.95;94050.97;5027382;28;20029;-72
2023/10/14 09:43:46;;;;;;;20.75;5.75;;;;;;;18.15;39.44;94040.13;5032137;28;20131;-73
2023/10/14 09:46:16;;;;;;;12.15;6.07;;;;;;;18.23;39.39;94039.16;5025850;28;20094;-72
2023/10/14 09:48:46;;;;;;;16.48;6.47;;;;;;;18.20;40.28;94006.75;5023614;28;20048;-72
2023/10/14 09:51:14;;;;;;;13.50;5.03;;;;;;;18.38;40.10;94034.81;5027088;28;20407;-71
2023/10/14 09:53:39;;;;;;;12.20;5.75;;;;;;;18.32;38.99;94020.09;5027547;28;20059;-72
2023/10/14 09:56:07;;;;;;;13.68;5.65;;;;;;;18.51;38.57;94017.34;5026867;28;20388;-72
2023/10/14 09:58:37;;;;;;;10.48;5.20;;;;;;;18.54;38.47;94016.63;5023224;28;20116;-72
2023/10/14 10:01:04;;;;;;;15.90;4.80;;;;;;;18.49;39.10;94003.44;5034809;28;20029;-72
2023/10/14 10:03:39;;;;;;;8.48;5.03;;;;;;;18.57;38.54;94001.69;5027781;28;20535;-73
2023/10/14 10:06:24;;;;;;;13.63;4.75;;;;;;;18.52;37.55;93975.81;5026493;28;20120;-72
2023/10/14 10:08:56;;;;;;;13.20;5.22;;;;;;;18.64;38.30;93989.09;5002931;28;20037;-72
2023/10/14 10:11:23;;;;;;;11.00;4.40;;;;;;;18.75;37.69;93990.09;5026888;28;20025;-73
2023/10/14 10:13:53;;;;;;;9.65;4.80;;;;;;;18.84;38.39;93984.44;5026363;28;20026;-74
2023/10/14 10:16:22;;;;;;;12.88;4.75;;;;;;;19.09;38.58;93974.84;5026652;28;20580;-72
2023/10/14 10:18:56;;;;;;;7.07;3.92;;;;;;;19.25;37.86;93969.28;5019409;28;20600;-72
2023/10/14 10:21:31;;;;;;;12.98;4.63;;;;;;;19.44;36.52;93974.56;5024152;28;20094;-71
2023/10/14 10:24:03;;;;;;;9.15;4.50;;;;;;;19.53;36.36;93964.31;5023729;28;20114;-73
2023/10/14 10:26:58;;;;;;;14.40;4.53;;;;;;;19.60;36.07;93953.59;5055920;28;20449;-71
2023/10/14 10:29:24;;;;;;;12.80;4.13;;;;;;;19.56;36.88;93942.00;5025785;28;20681;-74
2023/10/14 10:32:13;;;;;;;18.95;4.80;;;;;;;19.26;35.84;93919.63;5024971;28;20045;-72
2023/10/14 10:35:20;;;;;;;10.95;4.28;;;;;;;19.57;36.35;93930.06;5024217;28;20135;-72
2023/10/14 10:37:57;;;;;;;7.93;4.57;;;;;;;19.59;36.24;93930.50;4957121;28;20583;-72
2023/10/14 10:40:29;;;;;;;9.60;5.07;;;;;;;19.74;36.23;93926.81;4953060;28;20656;-72
2023/10/14 10:42:58;;;;;;;13.95;4.93;;;;;;;19.75;35.93;93922.94;4996888;28;20041;-73
2023/10/14 10:45:33;;;;;;;15.40;5.20;;;;;;;19.85;35.73;93918.06;5034966;28;20055;-73
2023/10/14 10:48:03;;;;;;;8.25;4.18;;;;;;;19.95;36.33;93914.69;5052581;28;20111;-73
2023/10/14 10:50:36;;;;;;;14.13;4.22;;;;;;;20.09;35.80;93914.84;5045155;28;20481;-72
2023/10/14 10:53:23;;;;;;;17.17;5.07;;;;;;;20.12;35.57;93897.91;5046772;28;20047;-72
2023/10/14 10:55:51;;;;;;;12.85;4.10;;;;;;;20.07;35.79;93901.72;5045762;28;20037;-72
2023/10/14 10:58:17;;;;;;;10.55;4.50;;;;;;;20.22;35.75;93891.09;5045941;28;20047;-72
2023/10/14 11:00:47;;;;;;;10.70;4.45;;;;;;;20.25;36.13;93888.41;5041888;28;20398;-72
2023/10/14 11:03:14;;;;;;;10.25;3.85;;;;;;;20.44;36.48;93888.19;5047732;28;20056;-72
2023/10/14 11:05:42;;;;;;;12.35;5.30;;;;;;;20.47;34.90;93884.75;5042915;28;20035;-73
2023/10/14 11:08:10;;;;;;;10.18;3.22;;;;;;;20.54;34.36;93881.31;5045510;28;20063;-73
2023/10/14 11:10:42;;;;;;;8.60;3.75;;;;;;;20.56;34.50;93877.09;5045762;28;20029;-73
2023/10/14 11:13:11;;;;;;;11.43;4.13;;;;;;;20.44;34.29;93877.38;5045963;28;20044;-71
2023/10/14 11:15:38;;;;;;;7.30;3.63;;;;;;;20.43;35.17;93872.38;5041936;28;20036;-71
2023/10/14 11:18:04;;;;;;;6.50;4.15;;;;;;;20.46;34.23;93869.69;5042354;28;20697;-72
2023/10/14 11:20:34;;;;;;;5.47;3.70;;;;;;;20.52;34.17;93870.91;5045446;28;20060;-72
2023/10/14 11:23:04;;;;;;;8.52;4.20;;;;;;;20.59;34.19;93859.38;5063436;28;20102;-72
2023/10/14 11:25:35;;;;;;;12.43;4.28;;;;;;;20.67;34.53;93860.19;5043709;28;20384;-71
2023/10/14 11:28:01;;;;;;;11.90;5.03;;;;;;;20.77;33.29;93856.81;5043295;28;20505;-74
2023/10/14 11:30:28;;;;;;;6.72;4.25;;;;;;;20.91;33.71;93856.91;5045414;28;20067;-73
2023/10/14 11:32:58;;;;;;;5.00;3.20;;;;;;;20.87;33.81;93851.50;5045781;28;20040;-74
2023/10/14 11:35:28;;;;;;;8.15;3.83;;;;;;;21.06;34.76;93850.44;5044742;28;20029;-72
2023/10/14 11:38:03;;;;;;;6.72;4.35;;;;;;;21.15;33.38;93844.69;5050963;28;20036;-73
2023/10/14 11:40:37;;;;;;;7.53;3.08;;;;;;;21.29;34.26;93847.47;5045872;28;20033;-73
2023/10/14 11:43:05;;;;;;;10.60;4.38;;;;;;;21.26;33.23;93840.88;5044872;28;20055;-72
2023/10/14 11:45:31;;;;;;;10.68;3.92;;;;;;;21.15;33.56;93837.34;5027299;28;20568;-72
2023/10/14 11:48:00;;;;;;;8.98;3.30;;;;;;;21.11;33.14;93838.50;5046313;28;20045;-72
2023/10/14 11:50:30;;;;;;;5.43;2.95;;;;;;;20.98;32.72;93824.50;5047964;28;20024;-72
2023/10/14 11:52:57;;;;;;;8.60;3.60;;;;;;;20.91;32.96;93827.19;5039896;28;20057;-72
2023/10/14 11:55:27;;;;;;;7.47;3.58;;;;;;;21.05;32.69;93832.66;5042202;28;20124;-70
2023/10/14 11:57:58;;;;;;;5.38;3.30;;;;;;;21.10;32.87;93824.19;5062213;28;20081;-70
2023/10/14 12:00:24;;;;;;;8.23;3.47;;;;;;;21.01;32.93;93819.13;5052804;28;20131;-70
2023/10/14 12:02:50;;;;;;;6.25;3.80;;;;;;;21.13;32.99;93809.13;5042651;28;20043;-70
2023/10/14 12:05:16;;;;;;;6.63;3.47;;;;;;;21.27;34.01;93811.88;5041837;28;20378;-70
2023/10/14 12:07:51;;;;;;;12.70;3.47;;;;;;;21.25;32.53;93814.22;5045489;28;20800;-70
2023/10/14 12:10:17;;;;;;;6.60;3.55;;;;;;;21.24;32.71;93799.91;5040429;28;20037;-70
2023/10/14 12:12:52;;;;;;;6.63;3.70;;;;;;;21.39;34.17;93785.28;5050059;28;20135;-72
2023/10/14 12:15:20;;;;;;;9.88;3.65;;;;;;;21.54;33.00;93799.63;5040741;28;20043;-73
2023/10/14 12:17:46;;;;;;;8.52;3.50;;;;;;;21.49;32.59;93793.81;5046291;28;20032;-70
2023/10/14 12:20:11;;;;;;;6.88;3.63;;;;;;;21.57;32.86;93792.69;5059854;28;20052;-71
2023/10/14 12:22:41;;;;;;;9.77;3.90;;;;;;;21.75;35.05;93796.25;5052050;28;20102;-73
2023/10/14 12:25:07;;;;;;;9.95;3.88;;;;;;;21.74;32.33;93789.28;5043131;28;20648;-72
2023/10/14 12:27:36;;;;;;;8.55;3.92;;;;;;;21.84;34.96;93786.59;5047680;28;20636;-72
2023/10/14 12:30:01;;;;;;;8.93;3.60;;;;;;;21.92;32.94;93784.66;5043190;28;20033;-72
2023/10/14 12:32:30;;;;;;;6.07;3.53;;;;;;;21.92;32.31;93781.94;5048845;28;20035;-72
2023/10/14 12:34:58;;;;;;;10.07;3.88;;;;;;;21.99;32.18;93778.47;5044053;28;20021;-73
2023/10/14 12:37:24;;;;;;;9.15;3.58;;;;;;;22.05;33.17;93769.56;5044433;28;20392;-73
2023/10/14 12:39:55;;;;;;;10.20;4.40;;;;;;;22.01;32.00;93765.31;5042020;28;20048;-72
2023/10/14 12:42:38;;;;;;;7.78;3.78;;;;;;;22.04;31.78;93764.56;5047210;28;20099;-73
2023/10/14 12:45:11;;;;;;;9.93;3.53;;;;;;;22.05;32.02;93760.66;5049817;28;20037;-72
2023/10/14 12:47:38;;;;;;;7.57;3.40;;;;;;;22.19;31.72;93761.44;5047724;28;20115;-73
2023/10/14 12:50:04;;;;;;;6.63;3.40;;;;;;;22.35;33.54;93761.06;5020994;28;20087;-73
2023/10/14 12:52:30;;;;;;;11.07;3.50;;;;;;;22.38;33.42;93752.19;5033064;28;20465;-73
2023/10/14 12:54:55;;;;;;;7.70;3.30;;;;;;;22.41;31.44;93740.56;5036212;28;20459;-72
2023/10/14 12:57:21;;;;;;;7.55;3.35;;;;;;;22.33;31.43;93749.88;5044819;28;20037;-72
2023/10/14 12:59:47;;;;;;;5.57;3.53;;;;;;;22.43;31.33;93742.88;5050456;28;20439;-72
2023/10/14 13:02:17;;;;;;;8.20;3.17;;;;;;;22.46;31.16;93742.09;5044495;28;20048;-73
2023/10/14 13:04:44;;;;;;;12.23;3.88;;;;;;;22.18;31.65;93740.94;5042995;28;20493;-73
2023/10/14 13:07:11;;;;;;;8.25;3.38;;;;;;;22.39;34.01;93742.88;5048065;28;20033;-72
2023/10/14 13:09:38;;;;;;;7.20;3.28;;;;;;;22.37;31.81;93733.59;5047068;28;20040;-72
2023/10/14 13:12:15;;;;;;;13.02;3.83;;;;;;;22.22;31.74;93733.63;5044480;28;20049;-72
2023/10/14 13:14:43;;;;;;;6.18;3.65;;;;;;;22.24;31.73;93731.28;5038118;28;20690;-73
2023/10/14 13:17:09;;;;;;;6.22;3.72;;;;;;;22.44;33.24;93720.06;5033839;28;20047;-72
2023/10/14 13:19:35;;;;;;;8.52;3.45;;;;;;;22.64;32.55;93721.91;5044362;28;20053;-73
2023/10/14 13:22:14;;;;;;;9.32;3.63;;;;;;;22.54;30.86;93730.06;5052307;28;20037;-72
2023/10/14 13:24:40;;;;;;;8.13;3.90;;;;;;;22.48;31.34;93720.81;5040724;28;20049;-73
2023/10/14 13:27:06;;;;;;;10.65;3.38;;;;;;;22.51;31.66;93718.09;5041956;28;20078;-73
2023/10/14 13:29:31;;;;;;;6.00;3.47;;;;;;;22.70;34.04;93711.44;5048400;28;20031;-72
2023/10/14 13:31:57;;;;;;;7.35;3.28;;;;;;;22.68;31.88;93716.50;5045926;28;20047;-71
2023/10/14 13:34:22;;;;;;;9.00;3.45;;;;;;;22.78;31.61;93704.09;5048375;28;20055;-72
2023/10/14 13:36:47;;;;;;;14.95;3.53;;;;;;;22.85;32.23;93709.47;5052109;28;20036;-72
2023/10/14 13:39:16;;;;;;;13.45;3.83;;;;;;;22.77;31.13;93716.88;5046718;28;20074;-74
2023/10/14 13:41:48;;;;;;;8.73;3.38;;;;;;;22.92;32.17;93706.78;5044570;28;20029;-72
2023/10/14 13:44:17;;;;;;;11.80;3.50;;;;;;;22.90;31.92;93701.72;5046085;28;20064;-72
2023/10/14 13:46:43;;;;;;;7.50;3.58;;;;;;;22.43;31.34;93642.63;5043127;28;20159;-73
2023/10/14 13:49:09;;;;;;;8.35;2.97;;;;;;;22.97;31.89;93701.72;5042529;28;20037;-73
2023/10/14 13:51:34;;;;;;;8.63;3.67;;;;;;;23.09;33.25;93703.19;5045524;28;20041;-72
2023/10/14 13:54:03;;;;;;;5.88;3.40;;;;;;;23.05;31.37;93694.31;5044781;28;20020;-71
2023/10/14 13:56:31;;;;;;;9.27;4.10;;;;;;;23.20;33.01;93697.72;5048091;28;20039;-71
2023/10/14 13:58:57;;;;;;;8.70;3.47;;;;;;;23.23;33.08;93692.28;5044178;28;20114;-71
2023/10/14 14:01:23;;;;;;;7.47;4.07;;;;;;;23.30;33.42;93686.81;5046829;28;20045;-72
2023/10/14 14:03:58;;;;;;;9.20;4.10;;;;;;;23.28;32.59;93688.38;5045028;28;20718;-72
2023/10/14 14:06:25;;;;;;;7.13;3.63;;;;;;;23.33;33.00;93693.38;5048115;28;20029;-71
2023/10/14 14:08:57;;;;;;;6.88;3.35;;;;;;;23.22;33.54;93689.97;5044682;28;20021;-72
2023/10/14 14:11:23;;;;;;;9.80;3.58;;;;;;;23.20;32.09;93692.28;5047268;28;20515;-72
2023/10/14 14:13:52;;;;;;;8.20;4.03;;;;;;;23.01;32.51;93683.47;5047686;28;20041;-71
2023/10/14 14:16:18;;;;;;;6.70;3.47;;;;;;;23.07;31.93;93683.84;5047541;28;21122;-71
2023/10/14 14:18:48;;;;;;;4.32;3.28;;;;;;;22.97;32.44;93679.25;5047222;28;20048;-71
2023/10/14 14:21:15;;;;;;;7.03;3.58;;;;;;;22.92;32.08;93680.44;5047636;28;20565;-72
2023/10/14 14:23:41;;;;;;;6.60;3.08;;;;;;;22.74;32.72;93685.09;5046697;28;20111;-71
2023/10/14 14:26:07;;;;;;;13.32;3.88;;;;;;;22.61;33.24;93681.28;5045781;28;20032;-71
2023/10/14 14:28:33;;;;;;;11.68;4.10;;;;;;;22.48;33.36;93680.16;5044719;28;20146;-72
2023/10/14 14:31:00;;;;;;;12.18;4.22;;;;;;;22.35;33.91;93684.44;5049372;28;20617;-71
2023/10/14 14:33:29;;;;;;;8.60;3.55;;;;;;;22.23;33.54;93677.50;5046981;28;20047;-71
2023/10/14 14:35:55;;;;;;;8.13;3.90;;;;;;;22.16;34.04;93678.25;5036615;28;20035;-73
2023/10/14 14:38:21;;;;;;;9.65;4.25;;;;;;;22.07;33.91;93677.88;5042382;28;20544;-71
2023/10/14 14:40:47;;;;;;;8.65;3.28;;;;;;;22.01;34.23;93670.53;5044935;28;20029;-72
2023/10/14 14:43:13;;;;;;;11.52;3.30;;;;;;;21.90;34.22;93675.97;5045387;28;20067;-73
2023/10/14 14:45:39;;;;;;;5.57;3.83;;;;;;;21.79;34.83;93673.28;5046819;28;20032;-72
2023/10/14 14:48:04;;;;;;;7.50;3.78;;;;;;;21.79;34.81;93675.97;5046295;28;20483;-72
2023/10/14 14:50:34;;;;;;;6.97;3.83;;;;;;;21.81;34.91;93686.41;5044023;28;20090;-72
2023/10/14 14:53:00;;;;;;;7.78;4.00;;;;;;;21.63;35.00;93677.50;5045408;28;20044;-71
2023/10/14 14:55:30;;;;;;;9.77;3.80;;;;;;;21.53;35.10;93672.84;5047090;28;20889;-72
2023/10/14 14:57:57;;;;;;;10.23;3.58;;;;;;;21.54;35.12;93674.38;5046762;28;20045;-71
2023/10/14 15:00:28;;;;;;;10.05;4.13;;;;;;;21.36;35.27;93667.00;5059970;28;20476;-72
2023/10/14 15:02:57;;;;;;;7.47;3.45;;;;;;;21.28;35.55;93672.78;5046481;28;20097;-72
2023/10/14 15:05:50;;;;;;;10.10;3.95;;;;;;;21.16;35.96;93663.13;5046440;28;20025;-72
2023/10/14 15:08:16;;;;;;;10.50;3.33;;;;;;;21.05;35.91;93653.44;5045448;28;20047;-72
2023/10/14 15:10:44;;;;;;;8.82;3.60;;;;;;;21.03;35.68;93651.09;5044109;28;20035;-71
2023/10/14 15:13:11;;;;;;;13.23;4.15;;;;;;;20.97;35.91;93649.97;5046343;28;20040;-72
2023/10/14 15:15:41;;;;;;;7.38;3.45;;;;;;;20.83;36.20;93660.66;5064630;28;20028;-72
2023/10/14 15:18:07;;;;;;;9.75;3.50;;;;;;;20.65;35.71;93659.84;5050593;28;20094;-70
2023/10/14 15:20:37;;;;;;;9.35;4.00;;;;;;;20.53;36.24;93653.59;5045697;28;20027;-72
2023/10/14 15:23:03;;;;;;;13.25;3.53;;;;;;;20.46;36.24;93653.59;5046376;28;20037;-71
2023/10/14 15:25:36;;;;;;;7.57;3.88;;;;;;;20.42;36.27;93662.84;5043550;28;20072;-72
2023/10/14 15:28:07;;;;;;;6.05;3.22;;;;;;;20.25;36.57;93658.88;5044811;28;20028;-71
2023/10/14 15:30:33;;;;;;;10.20;3.60;;;;;;;20.14;37.23;93658.78;5043373;28;20036;-71
2023/10/14 15:33:05;;;;;;;7.45;3.08;;;;;;;20.06;37.48;93667.22;5045290;28;20028;-73
2023/10/14 15:35:32;;;;;;;6.93;3.38;;;;;;;19.97;37.66;93674.88;5044220;28;20021;-71
2023/10/14 15:38:01;;;;;;;8.80;3.97;;;;;;;19.87;37.51;93657.47;5043927;28;20058;-73
2023/10/14 15:40:32;;;;;;;5.63;3.20;;;;;;;19.70;37.54;93663.50;5045775;28;20874;-71
2023/10/14 15:42:58;;;;;;;8.63;3.50;;;;;;;19.64;37.76;93660.38;5043198;28;20899;-71
2023/10/14 15:45:24;;;;;;;7.78;3.17;;;;;;;19.58;37.77;93655.69;5045858;28;20044;-71
2023/10/14 15:47:54;;;;;;;8.43;3.47;;;;;;;19.50;37.91;93646.00;5049249;28;20032;-72
2023/10/14 15:50:21;;;;;;;7.35;3.45;;;;;;;19.53;37.81;93659.50;5050268;28;20522;-72
2023/10/14 15:52:49;;;;;;;5.55;3.58;;;;;;;19.56;37.99;93664.16;5067546;28;20599;-72
2023/10/14 15:55:17;;;;;;;4.97;3.35;;;;;;;19.51;38.27;93659.09;5050161;28;20049;-72
2023/10/14 15:57:44;;;;;;;7.85;4.65;;;;;;;19.41;38.49;93659.75;5065037;28;20518;-72
2023/10/14 16:00:23;;;;;;;9.07;4.53;;;;;;;19.39;37.63;93653.19;5053431;28;20037;-71
2023/10/14 16:03:07;;;;;;;5.45;3.67;;;;;;;19.38;37.73;93644.31;5049836;28;20029;-71
2023/10/14 16:05:33;;;;;;;11.60;4.63;;;;;;;19.41;37.36;93656.31;5050124;28;21034;-72
2023/10/14 16:08:00;;;;;;;5.65;3.50;;;;;;;19.21;37.05;93644.97;5049485;28;20737;-71
2023/10/14 16:10:28;;;;;;;7.65;3.72;;;;;;;19.25;37.01;93645.75;5050071;28;20482;-71
2023/10/14 16:12:54;;;;;;;11.02;4.88;;;;;;;19.20;36.81;93649.56;5048848;28;20060;-72
2023/10/14 16:15:21;;;;;;;7.30;3.78;;;;;;;19.17;36.83;93644.91;5049519;28;20024;-71
2023/10/14 16:17:52;;;;;;;5.05;3.50;;;;;;;19.17;36.73;93647.59;5047071;28;20055;-72
2023/10/14 16:20:21;;;;;;;5.22;3.28;;;;;;;19.17;36.51;93644.91;5048896;28;20127;-72
2023/10/14 16:22:48;;;;;;;5.90;3.38;;;;;;;19.22;35.83;93638.41;5048431;28;20163;-71
2023/10/14 16:25:19;;;;;;;8.10;3.95;;;;;;;19.19;35.76;93636.44;5049248;28;20049;-70
2023/10/14 16:27:45;;;;;;;5.03;3.33;;;;;;;19.13;35.21;93640.63;5056368;28;20040;-71
2023/10/14 16:30:15;;;;;;;8.40;4.53;;;;;;;19.19;35.40;93633.75;5049103;28;20047;-72
2023/10/14 16:32:43;;;;;;;7.75;3.88;;;;;;;19.20;35.23;93638.00;5050174;28;20069;-70
2023/10/14 16:35:09;;;;;;;6.32;3.78;;;;;;;19.18;35.73;93637.59;5046891;28;20029;-72
2023/10/14 16:37:34;;;;;;;5.47;3.25;;;;;;;19.17;35.41;93634.13;5049642;28;20040;-71
2023/10/14 16:40:00;;;;;;;5.57;3.97;;;;;;;19.10;35.35;93622.50;5046941;28;20092;-70
2023/10/14 16:42:25;;;;;;;7.53;3.45;;;;;;;19.12;35.42;93631.75;5051427;28;20029;-71
2023/10/14 16:44:52;;;;;;;6.07;3.90;;;;;;;19.13;35.34;93624.44;5046882;28;20032;-71
2023/10/14 16:47:18;;;;;;;8.95;3.92;;;;;;;19.20;35.08;93628.00;5049159;28;20036;-72
2023/10/14 16:49:44;;;;;;;8.93;3.80;;;;;;;19.28;35.99;93621.50;5053567;28;20025;-72
2023/10/14 16:52:10;;;;;;;5.93;3.55;;;;;;;19.30;35.76;93621.16;5049326;28;20037;-72
2023/10/14 16:54:38;;;;;;;8.70;4.57;;;;;;;19.22;35.53;93620.31;5047401;28;20037;-71
2023/10/14 16:57:04;;;;;;;10.88;4.72;;;;;;;19.18;36.78;93634.91;5048453;28;20095;-73
2023/10/14 16:59:31;;;;;;;13.32;5.35;;;;;;;19.14;36.55;93628.69;5048311;28;20025;-71
2023/10/14 17:01:57;;;;;;;11.65;8.25;;;;;;;19.18;36.47;93629.50;5049135;28;20025;-73
2023/10/14 17:04:24;;;;;;;6.93;4.80;;;;;;;19.18;36.67;93626.81;5050378;28;20804;-71
2023/10/14 17:06:51;;;;;;;5.80;3.80;;;;;;;19.14;37.23;93623.31;5047816;28;20089;-72
2023/10/14 17:09:17;;;;;;;8.13;4.80;;;;;;;19.06;37.38;93635.97;5048200;28;20261;-72
2023/10/14 17:11:46;;;;;;;6.57;4.05;;;;;;;18.76;37.92;93611.78;5049637;28;20094;-72
2023/10/14 17:14:12;;;;;;;8.55;4.93;;;;;;;18.79;37.98;93631.81;5049451;28;20033;-71
2023/10/14 17:16:40;;;;;;;8.52;4.25;;;;;;;18.63;38.70;93632.00;5048637;28;20033;-72
2023/10/14 17:19:06;;;;;;;8.35;4.32;;;;;;;18.48;38.66;93632.97;5047393;28;20037;-70
2023/10/14 17:21:32;;;;;;;7.93;4.45;;;;;;;18.46;39.00;93625.28;5047499;28;20491;-71
2023/10/14 17:23:58;;;;;;;12.00;5.07;;;;;;;18.37;39.02;93624.78;5045523;28;20064;-73
2023/10/14 17:26:24;;;;;;;6.50;4.13;;;;;;;18.17;39.44;93607.22;5047814;28;20021;-71
2023/10/14 17:28:50;;;;;;;6.70;3.80;;;;;;;18.24;39.46;93628.81;5047317;28;20042;-71
2023/10/14 17:31:16;;;;;;;6.57;4.07;;;;;;;18.25;39.03;93629.59;5049413;28;20507;-72
2023/10/14 17:33:42;;;;;;;7.47;4.18;;;;;;;18.20;39.32;93621.84;5048816;28;20036;-71
2023/10/14 17:36:11;;;;;;;8.20;3.70;;;;;;;18.14;39.50;93631.41;5049513;28;20039;-71
2023/10/14 17:38:39;;;;;;;6.43;3.42;;;;;;;18.14;39.41;93632.16;5046012;28;20176;-71
2023/10/14 17:41:17;;;;;;;4.95;3.30;;;;;;;18.25;39.09;93626.91;5030480;28;20391;-71
2023/10/14 17:43:43;;;;;;;7.38;4.22;;;;;;;18.26;39.06;93634.63;5040628;28;20083;-72
2023/10/14 17:46:20;;;;;;;6.47;3.60;;;;;;;18.27;39.25;93627.34;5045999;28;20071;-72
2023/10/14 17:48:46;;;;;;;9.55;5.10;;;;;;;18.18;37.48;93634.91;5048704;28;20894;-71
2023/10/14 17:51:11;;;;;;;8.60;4.50;;;;;;;18.32;38.34;93637.78;5045036;28;20048;-72
2023/10/14 17:53:38;;;;;;;10.63;4.78;;;;;;;18.33;39.08;93633.97;5051363;28;20831;-71
2023/10/14 17:56:15;;;;;;;9.10;4.90;;;;;;;18.35;38.76;93635.13;5048689;28;20539;-73
2023/10/14 17:58:41;;;;;;;9.70;4.90;;;;;;;18.35;38.40;93637.03;5044173;28;20032;-70
2023/10/14 18:01:12;;;;;;;12.45;6.10;;;;;;;18.36;38.82;93639.38;5046266;28;20044;-72
2023/10/14 18:03:45;;;;;;;10.93;4.68;;;;;;;18.28;39.41;93634.28;5046462;28;20348;-71
2023/10/14 18:06:12;;;;;;;8.05;5.55;;;;;;;18.28;38.99;93636.97;5043752;28;21148;-71
2023/10/14 18:08:40;;;;;;;13.27;5.88;;;;;;;18.33;39.40;93628.56;5047168;28;20113;-72
2023/10/14 18:11:07;;;;;;;10.80;5.88;;;;;;;18.15;39.41;93638.31;5045631;28;20119;-72
2023/10/14 18:13:35;;;;;;;12.55;6.00;;;;;;;18.09;39.76;93629.78;5046558;28;20044;-72
2023/10/14 18:16:07;;;;;;;10.32;5.68;;;;;;;18.07;39.88;93644.75;5051555;28;20032;-73
2023/10/14 18:18:35;;;;;;;14.23;6.63;;;;;;;17.90;40.64;93646.78;5045812;28;20059;-73
2023/10/14 18:21:09;;;;;;;13.30;5.47;;;;;;;17.90;40.92;93654.88;5045302;28;20029;-71
2023/10/14 18:23:38;;;;;;;16.30;6.97;;;;;;;17.64;41.10;93648.72;5043860;28;20132;-73
2023/10/14 18:26:07;;;;;;;12.35;6.82;;;;;;;17.56;41.69;93650.50;5046974;28;20041;-73
2023/10/14 18:28:34;;;;;;;15.02;6.80;;;;;;;17.60;41.00;93645.94;5045371;28;20554;-73
2023/10/14 18:31:00;;;;;;;12.40;6.55;;;;;;;17.56;41.27;93662.03;5042277;28;20529;-72
2023/10/14 18:33:26;;;;;;;8.23;5.88;;;;;;;17.39;41.68;93656.38;5041252;28;20028;-71
2023/10/14 18:35:51;;;;;;;14.38;6.13;;;;;;;17.31;42.00;93657.38;5045746;28;20039;-73
2023/10/14 18:38:17;;;;;;;13.25;7.15;;;;;;;17.31;41.90;93654.69;5042523;28;20038;-72
2023/10/14 18:40:47;;;;;;;10.10;7.55;;;;;;;17.34;42.01;93662.06;5060409;28;20048;-73
2023/10/14 18:43:15;;;;;;;17.60;10.60;;;;;;;17.32;42.28;93661.63;5046152;28;20056;-73
2023/10/14 18:45:41;;;;;;;16.95;10.48;;;;;;;17.18;42.46;93660.25;5043138;28;20078;-71
2023/10/14 18:48:07;;;;;;;16.45;11.48;;;;;;;17.16;42.50;93670.56;5044389;28;20047;-73
2023/10/14 18:50:36;;;;;;;21.13;13.48;;;;;;;17.16;42.68;93670.56;5045921;28;20024;-73